Date,TemperatureHighF,TemperatureAvgF,TemperatureLowF,DewpointHighF,DewpointAvgF,DewpointLowF,HumidityHigh,HumidityAvg,HumidityLow,PressureMaxIn,PressureMinIn,WindSpeedMaxMPH,WindSpeedAvgMPH,GustSpeedMaxMPH,PrecipitationSumIn
2013-1-1,32.4,25.3,11.3,27.6,14.6,2.8,95,65,40,29.84,29.57,20,2,20,0.03
2013-1-2,22.2,11.0,0.6,8.8,0.6,-6.4,89,64,43,30.00,29.80,26,2,26,0.00
2013-1-3,23.4,9.7,0.1,10.1,0.7,-6.3,88,68,42,30.06,29.91,12,1,12,0.00
2013-1-4,34.4,21.0,1.8,26.4,15.6,-1.2,100,80,70,29.91,29.69,17,2,17,0.01
2013-1-5,35.7,29.5,14.8,27.4,18.3,10.8,92,64,42,30.23,29.69,23,3,23,0.01
2013-1-6,33.7,23.4,13.6,26.4,19.8,10.2,93,86,70,30.20,29.87,9,1,9,0.09
2013-1-7,27.2,21.8,13.8,25.1,17.2,10.9,100,83,62,30.37,29.90,14,1,14,0.01
2013-1-8,36.9,25.0,12.2,31.5,21.4,10.1,96,86,73,30.31,30.19,25,3,25,0.00
2013-1-9,37.6,36.2,35.6,32.3,30.6,30.0,81,80,79,29.87,29.84,11,2,11,0.04
2013-1-10,45.1,38.2,26.6,32.0,26.5,21.8,86,64,47,30.48,29.86,30,4,30,0.00
2013-1-11,36.1,29.9,21.2,34.5,24.1,18.6,94,80,55,30.50,30.21,11,1,11,0.00
2013-1-12,42.4,37.5,34.5,40.7,36.5,33.7,98,96,91,30.22,30.07,5,0,5,0.03
2013-1-13,47.3,41.4,35.4,47.0,41.0,34.9,99,99,98,30.11,29.91,15,1,15,0.01
2013-1-14,54.1,45.1,37.3,50.0,40.7,24.7,99,86,48,30.16,29.80,15,2,15,0.01
2013-1-15,37.7,33.5,28.0,27.3,24.6,21.8,88,70,57,30.27,30.16,9,1,9,0.00
2013-1-16,33.0,31.6,30.0,31.7,28.1,20.6,97,88,65,30.23,29.73,10,1,10,0.02
2013-1-17,38.4,28.3,16.4,34.5,21.9,1.3,97,79,44,30.09,29.72,18,1,18,0.50
2013-1-18,19.2,13.5,6.4,9.0,-1.2,-10.7,84,53,31,30.37,30.06,19,2,19,0.00
2013-1-19,40.2,33.5,19.5,32.8,23.9,9.1,83,68,57,30.33,29.83,22,3,22,0.06
2013-1-20,46.5,40.1,27.5,37.0,28.5,13.5,84,64,37,29.83,29.40,25,5,26,0.02
2013-1-21,27.4,21.6,14.5,17.5,6.7,-2.4,82,54,31,30.01,29.78,13,2,13,0.00
2013-1-22,20.0,14.8,8.4,15.8,6.3,-9.0,86,69,44,30.00,29.72,13,2,13,0.00
2013-1-23,8.4,3.8,0.3,-9.5,-13.6,-17.2,55,44,35,30.06,29.98,21,3,21,0.00
2013-1-24,14.3,5.9,-1.0,-7.0,-11.6,-15.3,55,45,28,30.08,29.90,22,4,22,0.00
2013-1-25,20.9,12.0,4.0,4.3,-2.6,-8.2,68,52,31,30.17,30.03,18,2,18,0.00
2013-1-26,21.7,15.1,9.1,2.2,-2.0,-6.2,64,47,31,30.09,29.93,18,2,18,0.00
2013-1-27,25.8,16.1,9.2,2.5,-0.2,-4.1,63,49,34,30.38,30.08,17,2,17,0.00
2013-1-28,26.6,18.3,7.0,20.4,6.5,-5.8,92,64,27,30.40,30.04,6,0,6,0.00
2013-1-29,32.0,26.5,18.5,30.9,23.7,16.2,100,89,80,30.18,30.03,5,0,5,0.11
2013-1-30,54.4,44.7,31.5,54.0,44.1,30.2,100,98,95,30.11,29.41,24,4,24,0.29
2013-1-31,56.2,46.0,30.3,55.1,38.2,14.9,98,76,48,29.42,28.82,24,7,34,0.13
2013-2-1,30.5,25.7,16.6,17.2,8.8,2.5,58,49,34,29.99,29.41,24,4,24,0.00
2013-2-2,26.0,20.3,11.6,18.3,7.8,1.0,76,58,47,30.17,29.99,11,1,11,0.00
2013-2-3,27.7,25.1,22.6,21.9,17.6,14.7,95,73,60,30.01,29.65,13,1,13,0.00
2013-2-4,29.9,23.5,17.5,15.2,8.2,-2.1,77,53,34,29.83,29.60,23,3,23,0.00
2013-2-5,24.7,16.2,6.2,10.2,1.9,-3.5,83,55,30,29.99,29.83,17,1,17,0.00
2013-2-6,37.0,24.9,14.0,26.5,14.2,-5.4,84,66,31,30.24,29.88,16,2,16,0.00
2013-2-7,22.1,15.0,9.7,-2.5,-6.4,-11.6,53,38,22,30.55,30.24,16,2,16,0.00
2013-2-8,14.1,12.8,11.3,8.4,3.7,-3.6,87,67,45,30.54,30.44,16,3,16,0.00
2013-2-11,34.8,33.3,32.8,34.5,33.1,32.5,100,99,99,29.59,29.53,4,0,4,0.46
2013-2-12,45.4,36.3,30.1,36.3,31.8,27.7,99,85,60,29.73,29.48,13,1,13,0.00
2013-2-13,43.1,32.9,26.6,29.4,27.0,24.6,96,80,49,29.78,29.69,13,1,13,0.00
2013-2-14,41.4,32.6,21.8,25.5,22.3,18.9,90,67,42,29.96,29.67,14,1,14,0.00
2013-2-15,44.2,33.0,19.4,37.7,29.7,17.7,97,88,75,29.96,29.87,21,2,21,0.00
2013-2-16,35.9,32.2,27.3,33.3,30.3,21.7,98,93,79,29.90,29.71,12,1,12,0.01
2013-2-17,27.3,22.3,18.1,21.7,13.9,5.4,92,71,53,29.72,29.12,36,6,36,0.00
2013-2-18,31.2,22.4,14.6,8.6,4.1,-0.6,58,45,35,30.00,29.41,31,7,31,0.00
2013-2-19,43.3,30.7,13.5,42.5,20.0,0.9,97,67,28,30.07,29.54,17,2,17,0.55
2013-2-20,43.9,34.8,27.1,43.1,29.6,19.4,98,82,60,29.60,29.38,14,2,17,0.13
2013-2-21,31.4,26.4,21.8,25.1,17.4,10.2,85,69,48,30.09,29.60,16,2,16,0.00
2013-2-22,39.6,31.6,24.7,25.5,22.9,20.3,92,71,47,30.34,30.08,14,2,14,0.00
2013-2-23,37.9,32.2,25.2,33.2,29.1,22.7,96,88,73,30.32,29.99,13,2,13,0.00
2013-2-24,33.7,31.2,28.3,32.8,30.3,27.3,97,96,95,29.99,29.74,13,1,13,0.08
2013-2-25,38.4,30.8,25.0,32.8,28.2,23.4,98,90,66,30.20,29.86,11,0,11,0.79
2013-2-26,41.6,33.0,27.3,32.1,29.0,26.7,98,86,61,30.33,30.20,8,0,8,0.02
2013-2-27,38.7,33.6,27.9,34.4,31.8,27.2,97,93,81,30.22,29.63,25,6,26,0.18
2013-2-28,41.9,37.6,31.8,41.4,36.8,30.8,98,97,93,29.63,29.50,31,3,31,0.63
2013-3-1,34.9,32.9,31.7,32.1,31.0,29.9,96,93,85,29.63,29.49,12,1,12,0.02
2013-3-2,42.3,34.5,30.8,34.0,32.0,30.0,98,91,65,29.61,29.55,14,1,14,0.15
2013-3-3,41.7,36.2,32.6,36.2,32.4,27.6,98,87,72,29.57,29.48,10,1,10,0.14
2013-3-4,34.1,32.3,30.3,30.5,27.9,25.1,93,84,76,29.64,29.45,18,3,18,0.05
2013-3-5,44.9,37.6,31.0,35.4,33.4,29.2,94,85,67,30.08,29.64,15,2,15,0.06
2013-3-6,38.9,35.4,32.5,33.9,30.4,27.3,96,82,68,30.21,30.08,30,6,30,0.01
2013-3-7,36.8,34.2,30.8,28.6,26.5,25.3,91,73,64,30.17,30.03,24,5,24,0.00
2013-3-8,47.0,36.8,29.5,28.8,24.7,21.5,94,64,37,30.15,29.98,24,4,24,0.05
2013-3-9,47.9,35.5,25.7,30.2,25.0,19.0,93,68,32,30.34,30.15,17,2,17,0.00
2013-3-10,38.2,31.6,22.4,32.2,27.4,21.0,100,85,72,30.39,30.27,11,1,11,0.00
2013-3-11,42.4,39.1,35.6,40.5,36.1,32.1,98,89,81,30.29,30.12,16,2,16,0.00
2013-3-12,47.2,44.6,41.6,46.7,43.2,39.7,98,95,91,30.14,29.71,21,3,21,0.67
2013-3-13,48.7,43.2,29.6,47.5,39.3,27.8,99,87,64,29.71,29.62,18,1,18,0.02
2013-3-14,41.6,31.4,22.0,30.1,24.4,8.7,97,77,47,29.70,29.57,18,2,18,0.00
2013-3-15,35.2,25.6,16.8,20.8,11.8,5.8,87,57,37,29.76,29.57,21,2,21,0.00
2013-3-16,37.1,29.8,23.9,24.9,16.1,9.1,90,58,33,29.86,29.58,18,2,18,0.00
2013-3-17,33.7,25.0,16.0,17.0,7.6,0.3,86,50,29,30.28,29.86,21,2,26,0.00
2013-3-18,36.7,25.2,12.3,21.1,9.3,1.1,73,53,25,30.41,30.25,14,1,14,0.00
2013-3-19,33.0,28.5,23.6,29.8,26.0,21.1,97,91,67,30.25,29.60,26,5,26,0.01
2013-3-20,34.7,28.0,21.1,32.1,26.2,19.9,96,93,87,29.69,29.57,15,2,15,0.31
2013-3-21,37.7,30.4,22.5,29.7,22.5,12.2,93,75,36,29.73,29.57,10,2,10,0.19
2013-3-22,38.4,29.6,19.8,25.5,20.1,17.1,94,69,45,29.61,29.55,13,1,13,0.00
2013-3-23,42.7,33.3,24.8,25.0,21.6,17.6,82,63,41,29.62,29.44,31,4,31,0.00
2013-3-24,47.0,36.3,26.0,27.4,25.2,23.2,89,66,41,29.74,29.61,9,2,18,0.00
2013-3-25,43.1,35.2,25.6,33.5,28.3,23.4,93,77,58,29.73,29.54,20,2,20,0.00
2013-3-26,49.9,40.0,32.1,28.2,25.9,23.0,77,58,38,29.69,29.51,18,2,18,0.00
2013-3-27,47.2,37.5,27.5,38.5,31.1,24.1,96,79,51,29.82,29.67,14,2,14,0.17
2013-3-28,50.4,40.6,32.9,38.0,34.4,30.6,97,80,48,29.93,29.82,12,1,12,0.01
2013-3-29,56.9,43.2,31.7,39.0,32.6,28.9,96,70,39,29.97,29.89,9,2,17,0.00
2013-3-30,55.5,40.6,29.9,34.0,29.3,16.9,93,69,23,30.04,29.93,13,2,15,0.00
2013-3-31,51.1,39.8,23.3,39.0,28.9,20.7,93,69,32,30.08,29.81,14,2,15,0.00
2013-4-1,52.6,43.5,34.7,44.3,39.9,25.9,97,87,69,29.82,29.45,22,3,22,0.70
2013-4-2,39.8,33.3,26.3,25.6,15.8,8.7,80,50,28,29.79,29.64,17,4,22,0.00
2013-4-3,45.2,36.1,29.2,19.1,14.8,8.6,64,43,23,30.01,29.77,23,4,23,0.00
2013-4-4,50.8,39.9,29.6,35.5,19.5,6.8,78,47,18,30.17,29.94,17,4,17,0.00
2013-4-5,54.0,44.0,37.8,36.4,32.0,23.1,81,64,42,29.94,29.61,18,4,18,0.00
2013-4-6,40.7,33.3,24.7,26.4,9.8,2.2,63,39,21,30.31,29.77,26,4,26,0.00
2013-4-7,45.6,37.2,22.5,40.2,28.9,12.5,86,72,55,30.32,29.92,21,4,21,0.00
2013-4-8,59.2,47.9,38.0,41.1,37.3,33.1,95,70,40,30.10,29.86,20,2,20,0.00
2013-4-9,47.2,42.1,36.6,44.7,40.1,34.0,97,93,86,30.09,29.85,13,2,13,0.23
2013-4-10,55.1,44.3,39.2,48.7,42.7,38.4,98,94,79,29.97,29.85,7,1,11,0.34
2013-4-11,53.3,44.5,39.6,42.7,34.4,18.0,98,71,32,30.15,29.82,10,2,14,0.06
2013-4-12,39.6,35.8,33.7,34.3,25.6,15.8,96,69,41,30.23,29.86,20,4,20,0.35
2013-4-13,46.4,38.6,33.2,39.4,35.8,32.4,97,90,73,29.89,29.73,12,1,13,0.12
2013-4-14,51.7,42.5,34.1,44.4,38.8,33.1,98,88,56,30.14,29.86,14,1,14,0.08
2013-4-15,51.9,40.4,29.7,42.0,36.5,29.0,97,87,61,30.40,30.14,13,2,13,0.01
2013-4-16,51.9,46.3,38.7,46.2,41.2,37.0,98,83,64,30.39,29.92,25,4,25,0.00
2013-4-17,60.7,51.7,37.5,46.9,34.5,25.0,94,56,29,30.31,29.92,12,2,20,0.00
2013-4-18,47.9,41.0,27.8,41.4,32.1,23.7,92,72,42,30.44,30.15,14,3,14,0.00
2013-4-19,66.3,54.8,45.4,59.2,52.0,41.1,98,91,77,30.15,29.61,22,4,22,0.00
2013-4-20,59.1,52.5,41.7,58.2,42.6,26.0,98,73,41,30.11,29.53,26,4,26,0.24
2013-4-21,51.1,41.1,29.4,29.3,23.6,16.4,83,52,27,30.67,30.10,19,2,19,0.00
2013-4-22,48.4,37.2,27.2,36.0,27.0,16.1,94,70,31,30.78,30.62,16,3,16,0.00
2013-4-23,43.3,37.3,27.5,40.8,35.1,26.3,96,92,82,30.62,30.16,17,3,17,0.01
2013-4-24,61.2,48.2,41.8,52.3,45.6,40.8,97,91,72,30.16,29.74,16,2,16,0.11
2013-4-25,62.9,52.5,41.1,50.1,39.9,25.3,100,67,25,30.25,29.75,25,3,25,0.07
2013-4-26,54.6,43.8,30.8,37.1,32.8,27.8,95,68,39,30.41,30.25,18,3,18,0.00
2013-4-27,55.6,43.3,32.2,43.5,38.0,31.5,100,83,55,30.39,30.29,16,2,16,0.00
2013-4-28,61.4,47.2,31.1,44.3,36.6,30.4,98,71,43,30.31,30.22,14,1,14,0.00
2013-4-29,60.1,47.0,33.4,48.0,40.5,32.4,97,80,44,30.25,30.19,13,2,13,0.00
2013-4-30,63.2,48.1,33.7,48.9,38.3,32.3,98,73,32,30.35,30.22,10,1,14,0.00
2013-5-1,62.9,48.8,32.0,43.8,36.0,28.7,98,67,30,30.44,30.34,12,1,12,0.00
2013-5-2,59.7,47.9,38.3,50.7,40.4,33.2,98,77,45,30.49,30.38,24,3,24,0.00
2013-5-3,61.1,47.6,33.6,47.4,40.7,32.3,97,78,58,30.52,30.36,16,2,16,0.00
2013-5-4,58.2,45.1,35.0,44.6,38.7,32.9,100,80,47,30.37,30.30,14,2,14,0.00
2013-5-5,57.7,45.0,30.2,45.3,37.1,28.9,97,76,51,30.32,30.23,14,2,14,0.00
2013-5-6,59.8,46.1,33.4,49.7,42.0,32.2,100,87,65,30.25,30.15,15,2,15,0.00
2013-5-7,67.0,53.5,43.8,55.9,49.3,43.0,100,87,61,30.16,30.07,12,2,12,0.00
2013-5-8,69.2,57.3,46.7,62.6,54.5,45.9,99,91,77,30.21,30.09,14,2,14,0.12
2013-5-9,57.7,53.5,51.0,56.3,52.8,50.5,99,98,94,30.09,29.88,10,2,10,0.87
2013-5-10,64.8,54.5,49.4,60.5,53.2,49.0,99,95,83,29.94,29.86,13,1,13,0.03
2013-5-11,63.7,55.9,50.3,60.1,54.8,49.8,98,96,88,29.90,29.65,22,3,22,0.21
2013-5-12,65.0,56.7,47.4,60.2,54.3,43.7,99,92,74,29.69,29.50,8,1,12,0.05
2013-5-13,57.2,49.4,40.0,43.7,34.7,30.1,93,59,38,29.97,29.69,23,3,23,0.00
2013-5-14,57.6,48.4,39.5,42.9,35.8,28.5,90,64,36,29.99,29.91,14,1,14,0.00
2013-5-15,60.3,49.0,33.2,49.2,38.5,23.3,96,72,26,29.99,29.63,19,3,22,0.21
2013-5-16,78.3,61.1,46.0,57.2,47.1,37.2,98,67,24,29.75,29.52,19,2,19,0.00
2013-5-17,65.5,55.6,43.5,46.8,41.8,37.1,91,62,38,30.17,29.75,17,2,17,0.00
2013-5-18,58.1,48.7,37.4,48.5,43.0,36.6,100,82,57,30.32,30.16,17,2,17,0.00
2013-5-19,58.6,50.7,43.7,49.9,47.1,42.4,98,88,71,30.34,30.21,15,3,15,0.11
2013-5-20,71.0,57.2,49.9,63.9,55.2,49.3,99,93,74,30.21,29.88,12,2,12,0.62
2013-5-21,54.1,49.8,47.9,53.2,48.8,47.1,100,96,94,30.09,29.92,16,3,16,0.17
2013-5-22,54.1,50.4,48.0,52.3,49.5,47.5,100,97,92,30.08,29.88,13,2,13,0.58
2013-5-23,62.3,55.3,48.0,61.5,54.4,47.5,100,97,92,29.92,29.78,18,2,18,0.04
2013-5-24,62.9,58.0,50.2,62.2,57.5,49.3,99,98,95,29.79,29.61,17,2,17,1.20
2013-5-25,52.6,49.1,46.5,52.0,48.3,45.9,99,97,94,29.78,29.61,18,3,18,0.48
2013-5-26,55.6,49.2,43.7,48.6,45.4,40.2,99,87,63,29.94,29.54,19,3,19,0.17
2013-5-27,68.2,54.0,38.9,45.8,38.8,33.5,97,62,29,30.12,29.94,21,2,21,0.00
2013-5-28,69.3,54.4,37.4,49.5,40.0,33.2,97,64,28,30.21,30.12,14,1,14,0.00
2013-5-29,54.5,52.0,45.3,54.2,51.4,43.1,99,98,90,30.18,29.96,13,1,13,0.12
2013-5-30,81.5,66.0,53.3,69.6,60.4,53.0,100,84,55,29.99,29.92,14,1,14,0.01
2013-5-31,85.8,70.9,54.9,72.3,62.6,54.3,99,77,52,30.01,29.85,10,1,18,0.00
2013-6-1,86.4,73.2,61.7,72.9,64.7,60.2,96,76,55,29.88,29.77,18,2,18,0.00
2013-6-2,79.8,71.3,62.9,70.0,65.1,61.0,94,81,63,29.78,29.64,22,2,22,0.00
2013-6-5,64.9,57.6,53.5,51.5,49.9,45.3,92,77,49,30.12,30.05,12,2,15,0.00
2013-6-6,67.0,57.4,47.4,55.0,49.6,40.4,98,78,40,30.18,30.11,15,2,15,0.00
2013-6-7,58.2,54.7,52.0,53.4,50.9,46.1,97,87,66,30.12,29.90,14,3,14,0.57
2013-6-8,68.5,58.4,53.0,62.8,56.1,52.2,98,92,76,29.94,29.58,17,3,17,1.07
2013-6-9,69.3,60.8,54.2,61.8,57.6,53.4,99,90,72,30.11,29.93,9,1,10,0.00
2013-6-10,66.5,58.5,50.4,58.9,54.7,49.9,99,88,68,30.18,30.02,11,1,11,0.00
2013-6-11,56.0,54.5,53.6,55.3,53.7,52.5,100,97,95,30.02,29.49,26,3,26,0.90
2013-6-12,61.6,57.5,54.1,59.2,55.9,53.5,98,95,85,29.72,29.47,16,1,16,0.17
2013-6-13,69.5,57.9,50.2,60.7,53.3,47.0,99,86,48,29.75,29.70,12,1,12,0.00
2013-6-14,72.2,59.5,52.2,60.0,54.6,50.3,99,85,54,29.71,29.62,13,1,13,0.00
2013-6-15,76.3,61.1,48.3,54.4,48.8,41.4,98,70,32,29.86,29.69,20,1,20,0.00
2013-6-16,73.9,61.9,48.8,58.5,53.8,48.3,99,77,48,29.86,29.67,12,1,12,0.00
2013-6-17,78.8,64.6,52.9,66.0,60.0,52.3,100,87,56,29.83,29.68,18,1,18,0.62
2013-6-18,66.5,60.0,53.9,59.2,56.2,51.9,99,88,64,29.95,29.80,10,0,10,0.01
2013-6-19,73.5,61.4,49.3,55.8,51.3,44.4,99,73,38,30.10,29.88,17,1,17,0.00
2013-6-20,72.6,61.3,45.7,57.4,51.5,45.2,98,73,43,30.22,30.10,11,1,11,0.00
2013-6-21,77.0,64.8,53.0,62.3,56.7,49.3,99,78,43,30.19,30.14,9,1,9,0.00
2013-6-22,78.5,65.5,56.2,68.4,61.9,55.6,99,89,57,30.17,30.06,8,0,8,0.15
2013-6-23,74.0,66.3,61.9,67.8,64.1,61.1,99,93,78,30.11,29.92,13,1,13,0.32
2013-6-24,89.2,75.4,63.7,76.1,69.0,63.3,99,82,54,29.92,29.77,16,1,16,0.00
2013-6-25,86.3,74.1,65.2,74.0,68.5,64.6,99,84,57,29.82,29.66,10,1,10,0.08
2013-6-26,76.4,66.4,58.0,72.2,64.7,57.0,99,95,83,29.86,29.65,18,2,18,0.49
2013-6-27,64.3,57.8,54.3,60.9,56.6,53.4,98,96,88,29.86,29.79,14,3,14,0.60
2013-6-28,65.6,60.3,55.9,65.6,60.0,55.3,100,99,98,29.80,29.51,22,4,22,0.42
2013-6-29,73.3,66.4,62.6,70.7,65.5,61.5,100,97,84,29.67,29.51,16,2,16,0.01
2013-6-30,77.2,68.3,62.6,72.7,66.1,61.5,99,93,82,29.90,29.66,11,2,11,0.00
2013-7-1,77.7,68.2,63.2,73.1,67.0,62.2,99,96,83,30.06,29.89,8,1,8,0.35
2013-7-2,65.7,62.2,58.3,65.7,61.9,57.7,100,99,97,30.19,30.04,11,1,11,0.38
2013-7-3,75.4,63.4,58.2,70.1,62.1,57.9,99,96,82,30.17,30.06,9,0,10,0.04
2013-7-4,84.5,73.9,61.8,77.2,69.8,61.4,100,88,70,30.12,30.00,10,1,10,0.00
2013-7-5,87.0,76.2,66.2,75.9,71.1,65.9,99,85,63,30.08,29.94,14,1,14,0.06
2013-7-6,87.3,76.6,65.6,77.8,72.0,64.4,100,87,65,29.98,29.87,8,0,8,0.00
2013-7-7,86.1,75.3,62.7,73.4,68.1,61.8,98,80,51,29.93,29.85,9,1,9,0.00
2013-7-8,74.5,69.0,64.5,70.5,65.8,61.0,98,90,68,30.05,29.86,12,1,12,0.92
2013-7-9,67.7,63.9,60.6,65.9,62.6,60.0,99,96,90,30.09,30.03,10,2,10,0.03
2013-7-10,68.8,63.0,60.0,68.7,62.2,59.4,100,97,91,30.06,29.74,13,2,13,0.03
2013-7-11,80.3,71.1,66.4,73.9,69.6,66.1,100,95,73,29.92,29.70,7,0,9,0.00
2013-7-12,78.8,68.4,58.1,68.9,60.8,57.0,98,78,58,30.18,29.92,14,1,14,0.00
2013-7-13,78.3,67.0,54.8,66.6,61.0,54.2,99,83,56,30.28,30.18,8,1,8,0.00
2013-7-14,85.8,74.0,63.9,73.9,67.5,63.2,99,82,58,30.25,30.14,9,1,9,0.00
2013-7-15,89.8,76.6,63.9,74.4,68.2,63.3,99,78,43,30.14,30.02,11,1,11,0.00
2013-7-16,89.2,77.0,68.0,74.2,69.5,66.6,96,79,53,30.12,30.04,12,1,12,0.00
2013-7-17,82.3,73.8,65.7,73.9,68.5,64.8,98,84,67,30.14,29.90,14,2,14,0.59
2013-7-18,82.5,74.4,68.3,74.6,69.3,63.1,99,85,57,29.97,29.88,10,1,10,0.02
2013-7-19,86.8,76.9,68.5,77.7,72.0,67.9,100,86,67,29.91,29.60,13,2,13,0.00
2013-7-20,85.3,77.2,68.9,74.0,70.3,63.5,96,80,63,29.74,29.56,13,1,13,0.00
2013-7-21,73.4,67.3,59.8,63.9,60.3,54.7,97,80,56,29.99,29.73,12,1,12,0.00
2013-7-22,72.5,64.7,57.8,66.3,60.6,56.9,99,87,64,30.01,29.89,11,1,11,0.00
2013-7-23,69.7,65.1,60.2,69.0,64.5,59.3,100,98,97,29.89,29.50,10,1,10,1.18
2013-7-24,81.3,69.1,60.0,74.1,64.8,52.8,100,87,68,29.94,29.53,10,1,10,0.00
2013-7-25,72.1,62.4,56.1,61.2,55.8,49.7,97,79,63,30.08,29.93,13,1,13,0.04
2013-7-26,68.8,64.9,62.0,66.1,63.2,61.0,97,94,88,30.05,29.85,21,1,21,0.18
2013-7-27,79.7,69.8,60.8,71.3,64.3,60.0,98,84,61,30.00,29.88,9,1,9,0.01
2013-7-28,70.8,64.5,59.5,66.7,63.4,59.1,99,96,87,30.01,29.97,16,2,16,0.03
2013-7-29,72.3,65.2,61.1,68.2,63.8,60.5,99,96,87,30.04,29.97,11,1,11,0.25
2013-7-30,77.7,67.0,58.1,67.4,63.0,57.4,100,88,62,30.03,29.97,10,1,10,0.01
2013-7-31,77.8,65.6,53.5,64.4,59.1,53.2,99,82,52,30.08,30.00,11,1,11,0.00
2013-8-1,74.3,66.2,56.1,68.8,63.8,55.7,99,92,79,30.02,29.85,14,2,14,0.00
2013-8-2,73.0,66.1,61.6,69.5,64.6,61.0,99,95,83,29.85,29.72,11,1,11,0.63
2013-8-3,76.0,64.6,57.8,66.5,61.6,57.2,100,91,63,29.79,29.68,9,1,10,0.02
2013-8-4,76.5,63.3,53.9,64.2,58.7,53.6,99,87,54,29.80,29.70,15,1,15,0.20
2013-8-5,73.0,61.5,51.4,57.6,53.0,47.8,99,76,48,30.00,29.79,17,1,17,0.00
2013-8-6,74.5,61.5,47.9,59.1,52.5,45.9,97,75,48,30.12,29.99,12,1,12,0.00
2013-8-7,71.8,62.5,49.4,65.2,58.9,48.0,98,89,65,30.16,30.09,13,1,13,0.00
2013-8-8,71.7,65.8,60.6,68.8,63.7,58.3,98,93,82,30.09,29.98,9,1,9,0.33
2013-8-9,72.2,68.4,66.3,71.3,67.5,65.4,99,97,95,29.99,29.68,17,2,17,0.55
2013-8-10,79.8,69.7,54.0,70.6,61.0,49.3,99,77,38,29.95,29.69,12,1,12,0.01
2013-8-11,75.5,63.1,49.1,60.0,54.8,48.5,99,77,49,30.01,29.94,11,1,11,0.00
2013-8-12,77.3,66.5,54.8,64.8,59.4,54.0,98,79,54,29.97,29.86,13,1,13,0.00
2013-8-13,73.3,64.9,55.5,68.8,62.1,54.9,99,91,77,29.87,29.66,10,1,10,0.00
2013-8-14,76.3,66.7,55.2,67.6,59.9,50.1,100,81,46,29.85,29.57,17,1,17,0.00
2013-8-15,73.7,62.6,50.8,59.1,54.3,49.4,97,76,51,30.04,29.84,11,1,11,0.00
2013-8-16,74.9,62.5,52.0,62.1,55.8,51.2,98,81,47,30.14,30.03,9,1,9,0.00
2013-8-17,77.1,63.8,51.7,63.4,57.2,51.2,99,82,48,30.23,30.13,12,1,12,0.00
2013-8-18,75.2,63.8,51.5,63.0,58.3,50.9,100,84,56,30.24,30.01,9,1,9,0.00
2013-8-19,79.7,68.1,57.3,68.7,62.4,56.7,99,84,60,30.01,29.85,9,1,9,0.00
2013-8-20,81.7,69.5,59.2,69.3,63.1,58.5,98,82,59,30.03,29.90,10,1,10,0.00
2013-8-21,86.5,71.9,59.0,71.9,64.5,58.4,99,80,52,30.08,29.94,11,1,11,0.00
2013-8-22,84.9,68.1,62.2,71.3,64.1,61.3,97,88,58,29.95,29.72,7,1,14,0.00
2013-8-23,79.4,70.0,57.6,65.9,58.7,52.5,94,70,42,30.09,29.72,6,1,15,0.00
2013-8-24,76.0,61.5,47.7,56.5,51.0,46.2,96,72,38,30.27,30.10,8,1,13,0.00
2013-8-25,76.4,62.7,49.2,59.6,54.8,48.4,98,78,47,30.32,30.12,6,1,9,0.00
2013-8-26,75.1,65.3,57.1,67.0,62.4,56.3,98,91,76,30.11,29.83,5,1,12,0.10
2013-8-27,79.2,68.1,58.8,69.4,64.0,58.5,99,88,70,29.86,29.80,5,1,9,0.00
2013-8-28,75.6,65.9,59.8,68.4,63.4,59.2,99,92,74,29.96,29.84,6,1,9,0.02
2013-8-29,68.5,63.9,54.2,64.1,60.9,53.4,99,90,80,30.07,29.95,11,1,15,0.00
2013-8-30,74.4,64.4,51.9,66.7,60.9,51.4,99,89,76,29.99,29.73,7,1,11,0.00
2013-8-31,80.4,70.9,65.5,70.6,67.3,64.0,96,89,67,29.78,29.72,5,1,11,0.02
2013-9-1,82.6,72.3,67.2,73.1,69.0,66.5,99,90,73,29.87,29.72,4,0,7,0.01
2013-9-2,67.6,66.0,65.2,67.0,65.7,64.9,100,99,97,29.87,29.70,10,1,10,4.71
2013-9-3,77.5,69.7,65.0,71.4,67.9,63.8,100,94,78,29.74,29.65,8,0,8,0.01
2013-9-4,78.0,66.9,57.2,65.5,61.1,56.6,99,83,58,29.85,29.70,11,1,11,0.01
2013-9-5,66.1,58.7,47.3,60.8,54.3,45.1,97,86,53,30.10,29.81,11,1,11,0.23
2013-9-6,65.2,54.6,41.9,55.6,46.3,38.0,98,77,39,30.19,30.00,13,1,13,0.00
2013-9-7,70.7,60.0,47.5,60.7,54.6,47.0,99,84,56,30.00,29.75,10,1,10,0.00
2013-9-8,66.5,58.9,44.4,60.4,51.1,41.0,97,77,49,30.03,29.67,21,1,21,0.20
2013-9-9,63.6,53.8,40.0,55.2,47.2,39.0,97,80,53,30.17,30.03,10,2,11,0.00
2013-9-10,65.0,61.2,56.6,63.1,58.6,53.2,98,91,85,30.09,29.99,13,1,13,0.00
2013-9-11,82.3,70.4,61.3,74.7,67.5,60.7,100,91,75,30.01,29.85,16,1,16,0.97
2013-9-12,73.9,67.3,63.4,70.9,66.4,62.8,99,97,89,29.94,29.61,12,1,12,1.26
2013-9-13,71.5,64.3,57.6,67.9,63.5,56.7,100,97,88,29.67,29.53,10,0,10,0.96
2013-9-14,68.3,60.2,52.0,61.9,56.7,50.2,98,89,72,29.98,29.66,9,1,9,0.00
2013-9-15,64.6,56.0,44.3,56.9,51.2,43.7,99,85,59,30.09,29.96,12,1,12,0.00
2013-9-16,66.3,55.5,43.8,58.6,52.3,39.0,98,89,69,30.22,29.93,11,1,11,0.07
2013-9-17,64.3,50.6,37.9,52.2,43.0,36.3,97,77,48,30.37,30.22,13,1,13,0.00
2013-9-18,68.0,53.3,39.7,54.3,46.8,38.9,99,81,47,30.27,30.06,9,0,9,0.00
2013-9-19,71.5,56.8,43.4,58.1,49.6,42.6,98,80,45,30.09,29.99,10,1,10,0.00
2013-9-20,73.0,57.7,45.3,60.8,52.2,44.5,100,84,52,30.07,29.99,9,0,9,0.00
2013-9-21,60.1,57.3,56.1,58.3,56.8,55.5,99,99,94,30.00,29.94,12,1,12,0.00
2013-12-14,11.7,11.3,10.9,9.0,7.2,-0.6,89,84,57,30.49,30.33,0,0,0,0.00
2013-12-15,16.7,12.8,9.6,14.3,10.5,7.2,93,90,89,30.33,29.34,21,2,21,0.00
2013-12-16,25.3,14.2,4.2,18.4,6.5,-3.4,94,73,45,30.15,29.60,18,1,18,0.06
2013-12-17,13.6,5.3,-8.7,8.6,-1.1,-12.5,90,75,54,30.26,29.97,8,1,8,0.00
2013-12-18,31.8,17.9,10.0,24.7,14.7,7.7,93,87,71,29.98,29.78,8,1,14,0.10
2013-12-19,32.3,24.2,13.6,26.6,21.2,12.0,95,89,78,30.03,29.86,9,1,12,0.01
2013-12-20,38.4,29.9,21.2,35.2,28.5,19.9,97,94,88,30.07,29.84,4,0,4,0.10
2013-12-21,33.8,32.0,28.6,32.7,31.2,27.9,98,97,94,29.90,29.77,6,0,6,0.15
2013-12-22,32.6,29.3,26.1,32.1,28.7,25.3,98,97,97,30.04,29.81,8,0,8,0.29
2013-12-23,32.4,29.9,26.4,31.9,29.4,25.8,98,98,97,30.06,29.90,0,0,0,0.01
2013-12-24,32.3,24.9,12.4,31.8,23.4,10.2,100,94,88,30.12,30.00,0,0,0,0.00
2013-12-25,21.0,11.4,6.4,16.0,8.2,3.1,92,87,79,30.50,30.12,0,0,0,0.00
2013-12-26,24.5,17.6,9.4,23.3,16.1,7.6,95,94,91,30.47,30.02,0,0,0,0.00
2013-12-27,36.2,20.6,8.5,32.4,18.6,6.7,96,92,82,30.15,30.07,6,0,6,0.01
2013-12-28,36.7,25.6,14.9,32.6,23.7,13.2,96,92,85,30.11,29.88,12,1,12,0.00
2013-12-29,33.1,25.5,15.8,32.3,24.6,14.0,98,96,93,29.97,29.46,11,0,11,0.00
2013-12-30,34.7,19.6,2.1,32.2,17.2,-1.2,97,90,76,30.12,29.46,7,1,14,0.01
2013-12-31,11.9,2.6,-4.8,7.0,-0.9,-7.9,91,85,74,30.13,29.99,4,0,6,0.00
2014-1-1,23.8,5.0,-8.6,15.2,0.7,-11.9,93,83,63,30.36,30.06,12,1,12,0.00
2014-1-2,7.3,-1.9,-6.6,4.5,-5.5,-9.9,88,84,80,30.38,29.94,17,2,17,0.00